createdAt,value
2022-08-12T14:42:49.740Z,44.58
2022-08-12T14:46:21.746Z,44.42
2022-08-12T14:50:33.763Z,44.51
2022-08-12T14:56:59.000Z,44.06
2022-08-12T15:00:01.270Z,44.20
2022-08-12T15:03:08.829Z,43.94
2022-08-12T15:06:52.307Z,43.52
2022-08-12T15:09:43.032Z,43.83
2022-08-12T15:16:22.724Z,44.24
2022-08-12T15:20:22.361Z,43.81
2022-08-12T15:22:53.860Z,43.89
2022-08-12T15:26:21.161Z,43.68
2022-08-12T15:29:34.841Z,43.80
2022-08-12T15:33:12.958Z,43.51
2022-08-12T15:36:19.535Z,43.36
2022-08-12T15:39:34.502Z,43.48
2022-08-12T15:42:41.860Z,43.52
2022-08-12T15:46:15.110Z,43.45
2022-08-12T15:49:29.912Z,43.54
2022-08-12T15:53:14.003Z,43.39
2022-08-12T15:56:12.619Z,43.33
2022-08-12T16:00:02.329Z,43.27
2022-08-12T16:02:53.006Z,43.07
2022-08-12T16:06:22.452Z,42.93
2022-08-12T16:09:56.345Z,42.96
2022-08-12T16:13:10.037Z,42.93
2022-08-12T16:16:25.969Z,42.79
2022-08-12T16:20:04.068Z,42.73
2022-08-12T16:23:55.550Z,42.63
2022-08-12T16:27:15.901Z,42.49
2022-08-12T16:30:33.070Z,42.16
2022-08-12T16:34:01.098Z,42.17
2022-08-12T16:40:34.037Z,42.00
2022-08-12T16:44:09.930Z,41.88
2022-08-12T16:47:14.658Z,41.79
2022-08-12T16:50:44.931Z,41.74
2022-08-12T16:54:03.035Z,41.64
2022-08-12T16:57:34.551Z,41.50
2022-08-12T17:00:48.293Z,41.16
2022-08-12T17:04:27.986Z,40.69
2022-08-12T17:07:36.255Z,40.97
2022-08-12T17:14:25.131Z,40.70
2022-08-12T17:18:15.385Z,40.68
2022-08-12T17:21:14.187Z,40.57
2022-08-12T17:24:44.072Z,40.39
2022-08-12T17:27:57.005Z,40.32
2022-08-12T17:32:00.154Z,40.16
2022-08-12T17:34:44.820Z,39.93
2022-08-12T17:38:15.079Z,39.81
2022-08-12T17:41:56.756Z,39.68
2022-08-12T17:45:17.727Z,39.62
2022-08-12T17:48:18.136Z,39.48
2022-08-12T17:52:02.460Z,39.38
2022-08-12T17:55:07.205Z,39.23
2022-08-12T17:58:38.306Z,39.10
2022-08-12T18:01:54.232Z,38.95
2022-08-12T18:05:12.172Z,38.82
2022-08-12T18:08:32.327Z,38.65
2022-08-12T18:16:04.110Z,38.35
2022-08-12T18:19:06.309Z,38.14
2022-08-12T18:22:13.300Z,37.94
2022-08-12T18:26:14.765Z,37.83
2022-08-12T18:29:05.281Z,37.67
2022-08-12T18:32:59.126Z,37.42
2022-08-12T18:35:53.117Z,37.22
2022-08-12T18:41:06.017Z,37.01
2022-08-12T18:44:37.438Z,37.01
2022-08-12T18:48:06.367Z,36.52
2022-08-12T18:55:06.035Z,36.11
2022-08-12T19:02:19.133Z,35.78
2022-08-12T19:05:18.424Z,35.50
2022-08-12T19:08:37.396Z,35.26
2022-08-12T19:12:11.068Z,35.06
2022-08-12T19:15:29.918Z,34.85
2022-08-12T19:18:58.412Z,34.68
2022-08-12T19:22:14.733Z,34.42
2022-08-12T19:26:01.168Z,34.28
2022-08-12T19:29:11.415Z,34.07
2022-08-12T19:32:43.773Z,33.88
2022-08-12T19:36:24.523Z,33.69
2022-08-12T19:40:08.694Z,33.51
2022-08-12T19:42:48.480Z,33.31
2022-08-12T19:46:18.453Z,33.15
2022-08-12T19:49:24.388Z,32.96
2022-08-12T19:52:56.494Z,32.81
2022-08-12T19:56:17.799Z,32.64
2022-08-12T20:00:03.389Z,32.49
2022-08-12T20:03:39.179Z,32.28
2022-08-12T20:06:31.347Z,32.11
2022-08-12T20:10:02.722Z,31.97
2022-08-12T20:15:05.252Z,31.64
2022-08-12T20:18:43.848Z,31.64
2022-08-12T20:21:40.040Z,31.42
2022-08-12T20:30:59.394Z,31.06
2022-08-12T20:34:01.638Z,30.92
2022-08-12T20:38:07.009Z,30.77
2022-08-12T20:40:47.899Z,30.65
2022-08-12T20:44:17.036Z,30.55
2022-08-12T20:47:41.954Z,30.38
2022-08-12T20:50:57.979Z,30.28
2022-08-12T20:54:32.677Z,30.14
2022-08-12T20:58:03.005Z,30.08
